Time;durP1;ratioP1;P1;durP2;ratioP2;P2;SDS_P1;SDS_P2;PMS_P1;PMS_P2;Temp;Humidity;BMP_temperature;BMP_pressure;BME280_temperature;BME280_humidity;BME280_pressure;Samples;Min_cycle;Max_cycle;Signal;HPM_P1;HPM_P2
2021/10/28 00:13:58;;;;;;;24.17;12.47;;;;;;;9.50;67.00;97170.53;5055693;28;20786;-66
2021/10/28 00:16:27;;;;;;;21.37;14.60;;;;;;;9.51;67.11;97170.34;5051270;28;20427;-66
2021/10/28 00:19:03;;;;;;;19.90;13.50;;;;;;;9.52;67.68;97163.34;5067477;28;20194;-67
2021/10/28 00:21:33;;;;;;;25.30;14.17;;;;;;;9.51;67.42;97165.13;5047433;28;20440;-66
2021/10/28 00:24:05;;;;;;;19.40;13.87;;;;;;;9.51;67.37;97154.66;5067245;28;20429;-67
2021/10/28 00:26:32;;;;;;;17.50;13.33;;;;;;;9.50;67.92;97155.66;5069993;28;20911;-65
2021/10/28 00:29:04;;;;;;;22.97;15.43;;;;;;;9.46;67.57;97158.69;5070460;28;20456;-65
2021/10/28 00:31:32;;;;;;;23.90;15.43;;;;;;;9.47;67.66;97153.31;5070706;28;20451;-65
2021/10/28 00:33:58;;;;;;;24.20;16.00;;;;;;;9.45;68.22;97152.66;5069524;28;20424;-66
2021/10/28 00:36:25;;;;;;;26.03;16.13;;;;;;;9.45;68.31;97154.44;5070913;28;20436;-65
2021/10/28 00:38:51;;;;;;;28.73;17.53;;;;;;;9.49;68.60;97147.94;5067349;28;20421;-66
2021/10/28 00:41:21;;;;;;;26.73;17.33;;;;;;;9.49;68.13;97148.78;5067778;28;20448;-64
2021/10/28 00:43:58;;;;;;;25.00;18.10;;;;;;;9.50;68.46;97153.03;5068896;28;20417;-66
2021/10/28 00:46:29;;;;;;;26.93;18.23;;;;;;;9.49;68.36;97150.56;5069796;28;20738;-64
2021/10/28 00:48:55;;;;;;;25.90;16.93;;;;;;;9.47;68.71;97155.94;5069268;28;20444;-65
2021/10/28 00:51:24;;;;;;;28.87;18.10;;;;;;;9.44;68.79;97147.56;5070934;28;20494;-68
2021/10/28 00:53:50;;;;;;;26.60;17.00;;;;;;;9.43;68.38;97156.38;5053073;28;20633;-66
2021/10/28 00:56:17;;;;;;;27.90;17.33;;;;;;;9.42;68.75;97144.28;5068664;28;20433;-67
2021/10/28 00:58:43;;;;;;;31.13;16.27;;;;;;;9.42;68.92;97146.91;5068961;28;20428;-66
2021/10/28 01:01:09;;;;;;;25.27;17.40;;;;;;;9.40;68.72;97148.81;5070474;28;20464;-65
2021/10/28 01:03:36;;;;;;;32.97;18.27;;;;;;;9.43;68.79;97156.38;5071776;28;20424;-67
2021/10/28 01:06:03;;;;;;;23.50;17.23;;;;;;;9.46;69.36;97145.59;5073125;28;20428;-66
2021/10/28 01:08:29;;;;;;;26.17;18.10;;;;;;;9.46;69.19;97146.44;5064627;28;20412;-66
2021/10/28 01:10:56;;;;;;;32.03;18.93;;;;;;;9.48;69.45;97141.06;5072893;28;20804;-66
2021/10/28 01:13:23;;;;;;;37.53;19.77;;;;;;;9.44;69.65;97147.56;5073625;28;20530;-66
2021/10/28 01:15:50;;;;;;;37.23;20.37;;;;;;;9.38;69.75;97152.41;5073727;28;20452;-66
2021/10/28 01:18:16;;;;;;;28.70;19.60;;;;;;;9.34;69.55;97145.81;5067643;28;20523;-66
2021/10/28 01:20:44;;;;;;;35.83;18.80;;;;;;;9.31;69.77;97142.66;5074588;28;20919;-66
2021/10/28 01:23:11;;;;;;;49.60;19.13;;;;;;;9.25;69.51;97141.47;5070442;28;20435;-66
2021/10/28 01:25:38;;;;;;;47.43;18.80;;;;;;;9.22;69.91;97133.91;5084001;28;20412;-67
2021/10/28 01:28:07;;;;;;;29.00;18.53;;;;;;;9.22;69.44;97133.91;5082880;28;20425;-67
2021/10/28 01:30:33;;;;;;;31.77;19.20;;;;;;;9.16;69.40;97137.13;5083445;28;20492;-67
2021/10/28 01:32:58;;;;;;;28.13;18.77;;;;;;;9.18;69.55;97135.19;5079180;28;20805;-66
2021/10/28 01:35:24;;;;;;;28.70;19.00;;;;;;;9.16;69.18;97132.69;5071849;28;20206;-66
2021/10/28 01:37:50;;;;;;;31.80;19.77;;;;;;;9.13;69.60;97132.16;5071315;28;20593;-66
2021/10/28 01:40:16;;;;;;;27.60;18.40;;;;;;;9.06;69.63;97130.13;5072915;28;20261;-66
2021/10/28 01:42:50;;;;;;;33.53;19.67;;;;;;;9.08;69.98;97130.00;5072202;28;20455;-67
2021/10/28 01:45:17;;;;;;;28.87;19.43;;;;;;;9.04;69.54;97124.22;5072184;28;20444;-65
2021/10/28 01:47:42;;;;;;;28.97;19.40;;;;;;;8.95;69.77;97129.50;5073095;28;20427;-66
2021/10/28 01:50:10;;;;;;;27.53;19.10;;;;;;;8.94;69.76;97128.69;5071925;28;20429;-65
2021/10/28 01:52:38;;;;;;;23.57;18.00;;;;;;;8.93;69.58;97120.97;5072245;28;20300;-67
2021/10/28 01:55:07;;;;;;;27.90;18.13;;;;;;;8.94;69.50;97126.06;5063218;28;20598;-67
2021/10/28 01:57:32;;;;;;;25.00;17.37;;;;;;;8.88;69.96;97124.00;5072896;28;20435;-66
2021/10/28 01:59:58;;;;;;;28.80;17.90;;;;;;;8.86;69.28;97128.56;5071200;28;20429;-66
2021/10/28 02:02:23;;;;;;;28.40;18.70;;;;;;;8.82;69.50;97124.59;5073441;28;20213;-66
2021/10/28 02:04:49;;;;;;;27.73;19.17;;;;;;;8.79;69.62;97119.66;5072062;28;20259;-67
2021/10/28 02:07:15;;;;;;;27.73;18.80;;;;;;;8.80;69.84;97123.91;5071517;28;20182;-65
2021/10/28 02:09:40;;;;;;;30.33;20.23;;;;;;;8.72;70.42;97125.44;5072103;28;20711;-65
2021/10/28 02:12:07;;;;;;;32.37;20.53;;;;;;;8.78;70.14;97115.38;5071664;28;20202;-66
2021/10/28 02:14:32;;;;;;;30.90;21.00;;;;;;;8.74;70.28;97118.28;5071508;28;20205;-66
2021/10/28 02:16:58;;;;;;;30.60;20.67;;;;;;;8.81;70.46;97115.13;5067801;28;20430;-66
2021/10/28 02:19:24;;;;;;;33.10;21.20;;;;;;;8.79;70.28;97111.81;5063809;28;20186;-66
2021/10/28 02:21:49;;;;;;;38.47;24.10;;;;;;;8.76;70.72;97116.34;5062437;28;20198;-66
2021/10/28 02:24:15;;;;;;;37.43;23.40;;;;;;;8.78;70.88;97108.34;5073320;28;20258;-66
2021/10/28 02:26:41;;;;;;;36.43;22.93;;;;;;;8.79;70.57;97106.59;5073343;28;20195;-66
2021/10/28 02:29:06;;;;;;;34.10;22.80;;;;;;;8.73;70.49;97114.03;5055268;28;20182;-65
2021/10/28 02:31:32;;;;;;;34.17;23.00;;;;;;;8.78;70.34;97118.00;5072930;28;20198;-67
2021/10/28 02:33:58;;;;;;;34.93;22.50;;;;;;;8.75;70.54;97112.09;5070361;28;20739;-66
2021/10/28 02:36:24;;;;;;;37.37;22.93;;;;;;;8.70;70.72;97119.53;5063823;28;20273;-65
2021/10/28 02:38:49;;;;;;;35.97;24.00;;;;;;;8.71;70.73;97118.56;5070499;28;20189;-69
2021/10/28 02:41:15;;;;;;;33.70;22.40;;;;;;;8.77;70.87;97119.78;5055149;28;20201;-66
2021/10/28 02:43:41;;;;;;;32.97;22.13;;;;;;;8.79;70.21;97115.25;5071750;28;20182;-65
2021/10/28 02:46:07;;;;;;;31.30;21.20;;;;;;;8.78;70.00;97110.16;5072883;28;20927;-64
2021/10/28 02:48:33;;;;;;;33.57;21.33;;;;;;;8.71;69.92;97107.31;5069937;28;20190;-65
2021/10/28 02:50:58;;;;;;;31.07;21.30;;;;;;;8.71;69.75;97118.56;5054595;28;20448;-67
2021/10/28 02:53:24;;;;;;;34.23;22.83;;;;;;;8.71;70.34;97110.72;5072094;28;20182;-66
2021/10/28 02:55:49;;;;;;;32.27;21.57;;;;;;;8.67;70.45;97112.00;5071309;28;20225;-66
2021/10/28 02:58:17;;;;;;;36.87;22.33;;;;;;;8.68;70.12;97118.03;5072467;28;20684;-67
2021/10/28 03:00:43;;;;;;;33.97;21.97;;;;;;;8.67;70.29;97109.38;5043603;28;20202;-65
2021/10/28 03:03:09;;;;;;;30.30;19.97;;;;;;;8.66;69.74;97109.50;5072396;28;20448;-66
2021/10/28 03:05:35;;;;;;;29.47;20.90;;;;;;;8.64;69.78;97104.44;5071090;28;20421;-66
2021/10/28 03:08:01;;;;;;;29.17;20.83;;;;;;;8.65;70.26;97106.09;5070437;28;20436;-66
2021/10/28 03:10:27;;;;;;;36.33;21.40;;;;;;;8.61;70.59;97099.47;5070546;28;20509;-64
2021/10/28 03:12:54;;;;;;;34.00;20.73;;;;;;;8.65;69.95;97102.63;5070355;28;20190;-66
2021/10/28 03:15:20;;;;;;;40.50;22.17;;;;;;;8.59;71.11;97097.03;5053851;28;20216;-63
2021/10/28 03:25:58;;;;;;;39.47;23.33;;;;;;;8.89;70.33;97100.34;5068401;28;20428;-65
2021/10/28 03:28:24;;;;;;;44.30;24.13;;;;;;;8.95;70.65;97093.69;5071581;28;20421;-65
2021/10/28 03:30:50;;;;;;;40.00;24.10;;;;;;;8.95;70.54;97093.69;5071549;28;20201;-66
2021/10/28 03:33:19;;;;;;;63.03;25.13;;;;;;;8.85;70.75;97087.72;5063432;28;20453;-66
2021/10/28 03:35:47;;;;;;;79.57;25.73;;;;;;;8.63;71.65;97099.34;5044373;28;20465;-66
2021/10/28 03:38:28;;;;;;;42.70;24.83;;;;;;;8.69;71.62;97099.63;5054454;28;21046;-65
2021/10/28 03:43:41;;;;;;;39.70;25.77;;;;;;;8.89;72.15;97104.75;5052964;28;20514;-66
2021/10/28 03:47:02;;;;;;;84.77;25.53;;;;;;;8.90;71.44;97098.56;5056765;28;20892;-65
2021/10/28 03:54:52;;;;;;;92.67;26.50;;;;;;;8.64;72.28;97096.59;5066662;28;20820;-66
2021/10/28 04:21:10;;;;;;;56.27;25.77;;;;;;;8.97;72.17;97094.38;5049879;28;20458;-65
2021/10/28 04:29:04;;;;;;;50.13;26.80;;;;;;;8.73;73.26;97093.13;5056947;28;20497;-65
2021/10/28 04:31:32;;;;;;;47.77;26.80;;;;;;;9.05;72.88;97102.34;5030208;28;20536;-65
2021/10/28 04:33:59;;;;;;;44.70;27.17;;;;;;;8.98;73.18;97103.88;5040163;28;20541;-66
2021/10/28 04:36:29;;;;;;;45.57;26.63;;;;;;;9.12;72.19;97096.53;5050441;28;20440;-65
2021/10/28 04:38:56;;;;;;;41.20;25.43;;;;;;;9.20;72.29;97096.59;5052448;28;20520;-66
2021/10/28 04:41:21;;;;;;;40.53;24.90;;;;;;;9.29;71.99;97085.28;5052842;28;20453;-64
2021/10/28 04:43:47;;;;;;;40.57;25.07;;;;;;;9.37;72.16;97093.22;5053420;28;20431;-64
2021/10/28 04:46:12;;;;;;;43.70;26.17;;;;;;;9.45;72.21;97086.44;5062245;28;20523;-66
2021/10/28 04:48:38;;;;;;;52.10;25.13;;;;;;;9.44;72.20;97087.41;5060008;28;20228;-66
2021/10/28 04:51:04;;;;;;;45.80;24.30;;;;;;;9.51;71.58;97084.03;5055405;28;20213;-67
2021/10/28 04:53:29;;;;;;;41.27;26.67;;;;;;;9.46;71.70;97083.66;5054467;28;20202;-65
2021/10/28 04:55:55;;;;;;;39.73;25.27;;;;;;;9.48;71.82;97086.97;5062630;28;20572;-66
2021/10/28 04:58:21;;;;;;;47.50;25.43;;;;;;;9.18;72.96;97085.50;5056996;28;20533;-65
2021/10/28 05:00:47;;;;;;;44.27;25.40;;;;;;;9.48;72.21;97086.97;5051488;28;20510;-66
2021/10/28 05:03:12;;;;;;;46.63;25.67;;;;;;;9.54;71.73;97082.94;5065915;28;20567;-67
2021/10/28 05:05:38;;;;;;;45.67;25.93;;;;;;;9.61;71.48;97086.59;5057784;28;20184;-66
2021/10/28 05:08:04;;;;;;;37.20;24.10;;;;;;;9.37;72.18;97074.91;5062743;28;20198;-66
2021/10/28 05:10:32;;;;;;;37.60;24.00;;;;;;;9.43;71.67;97070.88;5038905;28;20203;-65
2021/10/28 05:12:57;;;;;;;48.63;25.23;;;;;;;9.48;71.72;97068.66;5032164;28;20195;-66
2021/10/28 05:15:23;;;;;;;39.60;24.20;;;;;;;9.20;72.63;97070.47;5057613;28;20954;-64
2021/10/28 05:17:48;;;;;;;34.63;23.23;;;;;;;9.49;71.44;97072.06;5054402;28;20557;-67
2021/10/28 05:20:15;;;;;;;35.80;24.27;;;;;;;9.34;71.75;97075.19;5057229;28;20672;-64
2021/10/28 05:22:40;;;;;;;43.00;25.07;;;;;;;9.37;71.88;97072.28;5065264;28;20183;-66
2021/10/28 05:25:07;;;;;;;38.70;24.50;;;;;;;9.48;71.19;97073.03;5034130;28;20434;-65
2021/10/28 05:27:32;;;;;;;39.63;23.53;;;;;;;9.24;72.05;97071.81;5052539;28;20248;-65
2021/10/28 05:29:58;;;;;;;52.23;25.87;;;;;;;9.41;71.51;97069.38;5063137;28;20441;-65
2021/10/28 05:32:23;;;;;;;47.10;25.43;;;;;;;9.37;71.81;97066.25;5053692;28;20727;-63
2021/10/28 05:34:49;;;;;;;47.70;24.20;;;;;;;9.50;71.84;97068.50;5052891;28;20217;-65
2021/10/28 05:37:16;;;;;;;47.40;24.80;;;;;;;9.47;71.50;97066.16;5052213;28;20685;-65
2021/10/28 05:39:42;;;;;;;35.77;22.57;;;;;;;9.35;71.42;97063.75;5053624;28;20186;-65
2021/10/28 05:42:07;;;;;;;38.30;24.00;;;;;;;9.52;71.18;97066.53;5053204;28;20457;-67
2021/10/28 05:44:33;;;;;;;44.63;25.10;;;;;;;9.47;70.63;97067.00;5059010;28;20181;-67
2021/10/28 05:46:59;;;;;;;46.50;24.10;;;;;;;9.02;71.39;97066.03;5055455;28;20317;-64
2021/10/28 05:49:28;;;;;;;38.57;23.30;;;;;;;9.18;72.19;97067.19;5060163;28;20183;-64
2021/10/28 05:51:53;;;;;;;36.83;22.43;;;;;;;9.16;71.95;97064.72;5053058;28;20368;-68
2021/10/28 05:54:19;;;;;;;38.50;23.20;;;;;;;9.19;71.40;97061.00;5051748;28;21049;-67
2021/10/28 05:56:45;;;;;;;45.43;22.50;;;;;;;9.12;71.56;97062.53;5059905;28;20186;-66
2021/10/28 05:59:10;;;;;;;44.93;24.03;;;;;;;9.26;71.17;97066.47;5051417;28;20425;-66
2021/10/28 06:01:36;;;;;;;48.67;23.37;;;;;;;9.16;71.42;97066.50;5044694;28;20203;-66
2021/10/28 06:04:02;;;;;;;41.67;23.43;;;;;;;9.10;71.64;97067.91;5051423;28;20205;-66
2021/10/28 06:06:27;;;;;;;38.83;24.77;;;;;;;8.95;72.09;97072.78;5051376;28;20241;-65
2021/10/28 06:08:53;;;;;;;37.50;23.43;;;;;;;8.84;72.59;97078.22;5060764;28;20187;-66
2021/10/28 06:11:19;;;;;;;34.23;22.90;;;;;;;9.09;71.74;97073.28;5053810;28;20560;-67
2021/10/28 06:13:46;;;;;;;31.70;23.13;;;;;;;9.07;72.09;97081.28;5073147;28;20552;-64
2021/10/28 06:16:13;;;;;;;34.70;22.13;;;;;;;9.00;71.53;97070.56;5072188;28;20238;-66
2021/10/28 06:18:41;;;;;;;35.30;23.33;;;;;;;9.10;71.45;97069.69;5062967;28;20478;-66
2021/10/28 06:21:08;;;;;;;36.57;23.77;;;;;;;9.27;71.22;97068.91;5062834;28;20821;-66
2021/10/28 06:23:34;;;;;;;31.10;21.40;;;;;;;9.21;71.32;97069.50;5066379;28;20421;-66
2021/10/28 06:25:59;;;;;;;34.87;21.80;;;;;;;9.37;70.93;97067.06;5072508;28;20433;-65
2021/10/28 06:28:25;;;;;;;32.07;21.23;;;;;;;9.48;70.68;97067.81;5073072;28;20486;-65
2021/10/28 06:30:50;;;;;;;28.90;20.97;;;;;;;9.38;70.33;97078.34;5072458;28;20880;-64
2021/10/28 06:33:21;;;;;;;27.77;20.67;;;;;;;9.56;70.48;97072.31;5069259;28;20186;-65
2021/10/28 06:35:47;;;;;;;28.90;20.00;;;;;;;9.65;70.13;97072.25;5070088;28;20689;-65
2021/10/28 06:38:13;;;;;;;28.10;19.37;;;;;;;9.71;70.35;97067.34;5071301;28;20549;-65
2021/10/28 06:40:40;;;;;;;27.30;19.03;;;;;;;9.52;70.52;97069.97;5062871;28;20442;-66
2021/10/28 06:43:07;;;;;;;29.70;19.07;;;;;;;9.69;70.28;97064.91;5070488;28;20475;-66
2021/10/28 06:45:32;;;;;;;33.13;18.97;;;;;;;9.77;69.88;97066.78;5071896;28;20495;-66
2021/10/28 06:47:58;;;;;;;35.20;20.40;;;;;;;9.78;69.58;97068.41;5072278;28;20519;-67
2021/10/28 06:50:37;;;;;;;32.20;19.10;;;;;;;9.68;69.96;97063.25;5072541;28;20181;-65
2021/10/28 07:03:09;;;;;;;38.60;18.90;;;;;;;10.08;69.40;97050.66;5072298;28;20519;-66
2021/10/28 07:05:36;;;;;;;37.47;20.50;;;;;;;10.22;69.15;97049.28;5054543;28;20487;-66
2021/10/28 07:08:01;;;;;;;30.37;19.27;;;;;;;10.15;69.19;97052.50;5070133;28;20186;-67
2021/10/28 07:10:29;;;;;;;39.57;20.07;;;;;;;10.27;68.59;97049.66;5065183;28;20862;-66
2021/10/28 07:13:01;;;;;;;29.90;19.07;;;;;;;10.20;68.73;97054.69;5065846;28;20190;-68
2021/10/28 07:15:34;;;;;;;26.83;18.23;;;;;;;10.48;68.01;97049.28;5069417;28;20547;-66
2021/10/28 07:23:47;;;;;;;25.90;18.07;;;;;;;10.39;67.65;97050.22;5057880;28;20452;-65
2021/10/28 07:29:04;;;;;;;36.50;19.20;;;;;;;10.32;67.79;97043.94;5071386;28;20511;-66
2021/10/28 07:36:39;;;;;;;26.87;18.67;;;;;;;10.60;66.90;97057.72;5053560;28;20252;-66
2021/10/28 07:58:31;;;;;;;27.47;18.73;;;;;;;11.44;65.58;97054.38;5069031;28;20435;-63
2021/10/28 08:13:28;;;;;;;23.83;16.07;;;;;;;11.64;64.60;97047.03;5056104;28;20429;-66
2021/10/28 08:17:23;;;;;;;25.00;15.77;;;;;;;12.07;63.44;97045.09;5050509;28;20433;-68
2021/10/28 08:19:50;;;;;;;20.43;16.70;;;;;;;11.67;63.88;97046.72;5039733;28;20743;-65
2021/10/28 08:22:24;;;;;;;22.73;16.80;;;;;;;12.00;63.34;97038.06;5061667;28;20437;-66
2021/10/28 08:30:17;;;;;;;24.83;17.10;;;;;;;12.21;63.06;97029.66;5054186;28;20416;-64
2021/10/28 08:32:43;;;;;;;27.57;18.20;;;;;;;12.60;62.10;97034.16;5070812;28;20427;-67
2021/10/28 08:35:09;;;;;;;24.00;19.23;;;;;;;12.55;62.66;97028.59;5069117;28;20476;-65
2021/10/28 08:37:42;;;;;;;27.30;19.83;;;;;;;12.30;63.39;97026.03;5069570;28;20421;-66
2021/10/28 08:40:09;;;;;;;32.37;20.90;;;;;;;12.34;63.72;97029.97;5069590;28;20416;-65
2021/10/28 08:42:35;;;;;;;28.20;19.83;;;;;;;12.59;62.93;97022.81;5060448;28;20452;-65
2021/10/28 08:45:01;;;;;;;34.37;19.93;;;;;;;12.79;62.43;97019.78;5072070;28;20425;-67
2021/10/28 08:47:29;;;;;;;28.73;20.43;;;;;;;12.75;62.41;97015.88;5070012;28;20428;-65
2021/10/28 08:55:30;;;;;;;29.83;20.90;;;;;;;12.66;62.54;97012.44;5065271;28;20607;-63
2021/10/28 09:26:17;;;;;;;28.37;20.10;;;;;;;13.75;59.77;97000.31;5073669;28;20452;-67
2021/10/28 09:28:47;;;;;;;27.10;20.40;;;;;;;14.11;58.70;96986.50;5072608;28;20429;-66
2021/10/28 09:31:21;;;;;;;26.67;19.47;;;;;;;13.87;59.51;96996.25;5064504;28;20440;-67
2021/10/28 09:34:09;;;;;;;25.70;17.57;;;;;;;14.17;58.31;96993.66;5066512;28;20840;-67
2021/10/28 09:45:22;;;;;;;30.40;22.53;;;;;;;14.56;57.20;96989.97;5072656;28;20421;-66
2021/10/28 09:48:06;;;;;;;34.70;23.60;;;;;;;14.76;56.86;96984.13;5062073;28;20440;-67
2021/10/28 09:50:50;;;;;;;23.17;17.73;;;;;;;14.88;56.90;96985.28;5056800;28;20436;-64
2021/10/28 09:58:25;;;;;;;22.30;17.40;;;;;;;15.45;54.90;96988.13;5053839;28;20187;-66
2021/10/28 10:00:51;;;;;;;23.07;16.47;;;;;;;15.29;54.74;96977.81;5072035;28;20456;-66
2021/10/28 10:03:29;;;;;;;27.37;18.00;;;;;;;15.38;55.11;96981.97;5072499;28;20429;-67
2021/10/28 10:06:25;;;;;;;22.70;15.93;;;;;;;15.52;54.66;96980.28;5073268;28;21147;-66
2021/10/28 10:08:41;;;;;;;20.73;16.13;;;;;;;15.57;54.03;96987.63;5071320;28;20424;-65
2021/10/28 10:11:07;;;;;;;21.60;15.37;;;;;;;15.65;54.34;96987.50;5060740;28;20496;-66
2021/10/28 10:13:32;;;;;;;22.30;16.37;;;;;;;15.73;53.87;96982.09;5073094;28;20288;-66
2021/10/28 10:16:01;;;;;;;20.57;16.00;;;;;;;15.97;53.47;96982.72;5071235;28;20623;-66
2021/10/28 10:18:31;;;;;;;20.03;15.70;;;;;;;16.18;53.03;96983.66;5067577;28;20277;-67
2021/10/28 10:21:16;;;;;;;23.30;16.77;;;;;;;16.08;52.61;96987.47;5071053;28;20445;-67
2021/10/28 11:27:46;;;;;;;14.90;10.77;;;;;;;18.27;46.10;96925.66;5041147;28;20889;-68
2021/10/28 12:46:15;;;;;;;10.20;9.13;;;;;;;22.21;36.95;96834.78;5069089;28;20874;-65
2021/10/28 12:51:43;;;;;;;10.03;8.30;;;;;;;22.71;35.17;96835.22;5057189;28;20440;-65
2021/10/28 12:57:09;;;;;;;12.80;10.13;;;;;;;22.87;36.58;96825.66;5069441;28;20469;-66
2021/10/28 13:52:14;;;;;;;15.87;9.17;;;;;;;27.90;27.89;96780.72;5036269;28;20822;-66
2021/10/28 14:35:58;;;;;;;13.40;10.37;;;;;;;20.04;42.06;96772.84;5072186;28;20471;-66
2021/10/28 15:35:17;;;;;;;12.87;10.07;;;;;;;17.99;48.34;96756.25;5031861;28;20464;-66
2021/10/28 16:23:19;;;;;;;12.20;9.10;;;;;;;16.52;52.23;96746.63;5054790;28;20416;-68
2021/10/28 16:25:46;;;;;;;13.03;9.80;;;;;;;16.43;52.39;96744.16;5070843;28;20428;-64
2021/10/28 16:28:15;;;;;;;12.90;10.23;;;;;;;16.28;53.00;96740.88;5071049;28;20582;-67
2021/10/28 16:30:43;;;;;;;12.93;10.10;;;;;;;16.20;53.49;96739.22;5061711;28;20432;-66
2021/10/28 16:33:09;;;;;;;16.20;11.40;;;;;;;16.17;53.56;96746.75;5070951;28;20424;-67
2021/10/28 16:35:34;;;;;;;21.43;10.10;;;;;;;16.12;53.63;96748.19;5075024;28;20533;-65
2021/10/28 16:38:00;;;;;;;12.90;10.43;;;;;;;16.07;54.02;96742.66;5074326;28;20312;-65
2021/10/28 16:40:26;;;;;;;19.47;12.83;;;;;;;15.97;54.53;96747.50;5067574;28;20187;-65
2021/10/28 16:42:52;;;;;;;17.40;11.47;;;;;;;15.94;54.82;96742.63;5050483;28;20801;-66
2021/10/28 16:45:17;;;;;;;16.50;12.10;;;;;;;15.89;55.07;96745.84;5074766;28;20200;-66
2021/10/28 16:47:43;;;;;;;17.33;11.90;;;;;;;15.80;55.25;96747.81;5072899;28;20178;-66
2021/10/28 16:50:09;;;;;;;17.67;12.00;;;;;;;15.56;56.22;96743.03;5074524;28;20217;-66
2021/10/28 16:52:34;;;;;;;14.77;11.50;;;;;;;15.49;56.27;96741.19;5074607;28;20202;-66
2021/10/28 16:55:00;;;;;;;15.43;9.90;;;;;;;15.40;56.47;96741.53;5073086;28;20210;-66
2021/10/28 16:57:25;;;;;;;14.90;11.10;;;;;;;15.33;56.92;96754.69;5065861;28;20208;-66
2021/10/28 16:59:51;;;;;;;18.03;11.40;;;;;;;15.27;57.19;96750.16;5073134;28;20516;-67
2021/10/28 17:02:17;;;;;;;21.90;11.40;;;;;;;15.14;57.54;96754.34;5074504;28;20206;-66
2021/10/28 17:04:43;;;;;;;19.53;11.93;;;;;;;15.13;57.51;96757.97;5074289;28;20213;-67
2021/10/28 17:07:09;;;;;;;17.33;12.20;;;;;;;15.09;57.76;96758.56;5073941;28;20230;-65
2021/10/28 17:09:34;;;;;;;21.20;11.80;;;;;;;14.99;58.22;96753.63;5074301;28;20425;-67
2021/10/28 17:12:01;;;;;;;27.80;14.17;;;;;;;14.92;58.37;96743.03;5061768;28;20202;-66
2021/10/28 17:14:26;;;;;;;29.57;15.30;;;;;;;14.88;58.56;96741.78;5073184;28;20182;-67
2021/10/28 17:16:53;;;;;;;19.90;12.50;;;;;;;14.83;58.73;96744.16;5068774;28;20460;-67
2021/10/28 17:19:19;;;;;;;23.47;13.93;;;;;;;14.78;58.71;96742.09;5073783;28;20186;-67
2021/10/28 17:21:46;;;;;;;25.63;14.30;;;;;;;14.77;58.85;96751.00;5067565;28;20775;-66
2021/10/28 17:24:33;;;;;;;27.83;14.53;;;;;;;14.69;58.90;96749.31;5072619;28;20812;-67
2021/10/28 17:26:59;;;;;;;25.50;14.27;;;;;;;14.61;59.07;96756.53;5072674;28;20452;-65
2021/10/28 17:29:25;;;;;;;20.13;13.03;;;;;;;14.46;59.33;96749.50;5073673;28;20489;-67
2021/10/28 17:31:55;;;;;;;24.33;14.10;;;;;;;14.16;60.38;96748.78;5062678;28;20450;-67
2021/10/28 17:34:21;;;;;;;21.60;13.70;;;;;;;13.99;61.08;96749.00;5034127;28;20187;-66
2021/10/28 17:36:52;;;;;;;38.17;15.90;;;;;;;13.82;62.05;96749.19;5042230;28;20481;-65
2021/10/28 17:39:17;;;;;;;20.00;14.00;;;;;;;13.75;61.86;96743.06;5051082;28;20431;-65
2021/10/28 17:41:43;;;;;;;20.60;14.03;;;;;;;13.80;61.66;96740.66;5041792;28;20878;-65
2021/10/28 17:44:09;;;;;;;22.77;14.63;;;;;;;13.82;61.41;96745.75;5046961;28;20247;-65
2021/10/28 17:46:34;;;;;;;26.80;14.50;;;;;;;13.82;61.08;96749.19;5046776;28;20259;-66
2021/10/28 17:49:00;;;;;;;19.00;12.53;;;;;;;13.66;61.95;96744.16;5067405;28;20731;-66
2021/10/28 17:51:26;;;;;;;19.30;13.03;;;;;;;13.70;61.76;96739.34;5045439;28;20214;-67
2021/10/28 17:53:52;;;;;;;18.80;13.40;;;;;;;13.72;61.99;96745.25;5043222;28;20446;-67
2021/10/28 17:56:19;;;;;;;22.90;15.33;;;;;;;13.71;61.85;96741.78;5057026;28;20587;-67
2021/10/28 17:58:45;;;;;;;28.10;18.10;;;;;;;13.74;61.52;96741.41;5071548;28;20178;-66
2021/10/28 18:01:15;;;;;;;39.67;23.00;;;;;;;13.69;61.42;96743.78;5071771;28;20445;-66
2021/10/28 18:03:40;;;;;;;20.87;14.60;;;;;;;13.61;61.71;96749.16;5071423;28;20450;-66
2021/10/28 18:06:06;;;;;;;25.83;14.57;;;;;;;13.57;61.28;96743.44;5072116;28;20429;-67
2021/10/28 18:08:32;;;;;;;19.87;14.37;;;;;;;13.51;61.49;96742.34;5064471;28;20252;-67
2021/10/28 18:10:57;;;;;;;19.80;14.80;;;;;;;13.50;61.69;96739.88;5059400;28;20678;-65
2021/10/28 18:13:23;;;;;;;22.83;15.70;;;;;;;13.47;61.87;96748.16;5072006;28;20213;-66
2021/10/28 18:15:50;;;;;;;24.13;13.80;;;;;;;13.44;61.83;96745.88;5072969;28;20632;-65
2021/10/28 18:18:16;;;;;;;21.90;13.47;;;;;;;13.40;61.91;96739.34;5066372;28;20626;-67
2021/10/28 18:20:42;;;;;;;23.13;14.57;;;;;;;13.35;61.80;96745.94;5054108;28;20425;-66
2021/10/28 18:23:07;;;;;;;25.57;15.00;;;;;;;13.33;62.42;96744.47;5047947;28;20265;-66
2021/10/28 18:25:33;;;;;;;22.17;14.30;;;;;;;13.30;62.02;96739.56;5054793;28;20175;-66
2021/10/28 18:28:00;;;;;;;20.53;14.43;;;;;;;13.23;61.99;96736.88;5070799;28;20214;-66
2021/10/28 18:30:35;;;;;;;18.53;13.30;;;;;;;13.09;62.75;96737.66;5068264;28;20642;-65
2021/10/28 18:33:01;;;;;;;22.20;14.97;;;;;;;13.09;62.60;96732.41;5067135;28;20431;-66
2021/10/28 18:35:28;;;;;;;17.50;14.17;;;;;;;13.04;62.81;96731.13;5071710;28;20468;-67
2021/10/28 18:37:54;;;;;;;18.47;14.60;;;;;;;12.99;62.75;96730.84;5071300;28;20519;-67
2021/10/28 18:40:20;;;;;;;22.17;14.40;;;;;;;12.93;63.12;96722.84;5058805;28;20571;-67
2021/10/28 18:42:46;;;;;;;20.37;14.90;;;;;;;12.92;62.77;96715.97;5064575;28;20450;-66
2021/10/28 18:45:12;;;;;;;23.53;15.43;;;;;;;12.83;63.03;96717.84;5072209;28;20202;-67
2021/10/28 18:47:37;;;;;;;20.40;15.20;;;;;;;12.85;62.74;96714.03;5054129;28;20282;-67
2021/10/28 18:50:05;;;;;;;23.40;16.40;;;;;;;12.85;62.87;96715.88;5054051;28;20820;-66
2021/10/28 18:52:31;;;;;;;20.00;15.80;;;;;;;12.82;63.03;96710.97;5069904;28;20216;-67
2021/10/28 18:54:57;;;;;;;19.63;15.10;;;;;;;12.82;62.92;96705.69;5069993;28;20460;-65
2021/10/28 18:57:23;;;;;;;21.60;16.20;;;;;;;12.77;62.99;96708.88;5071055;28;20179;-67
2021/10/28 18:59:48;;;;;;;23.30;17.40;;;;;;;12.71;62.88;96713.03;5070781;28;20426;-65
2021/10/28 19:02:17;;;;;;;22.00;16.07;;;;;;;12.70;62.75;96700.88;5054641;28;20289;-67
2021/10/28 19:04:43;;;;;;;22.33;16.27;;;;;;;12.71;63.03;96712.19;5070840;28;20191;-65
2021/10/28 19:07:11;;;;;;;23.90;16.70;;;;;;;12.65;62.76;96703.22;5071876;28;20444;-65
2021/10/28 19:09:36;;;;;;;28.67;19.03;;;;;;;12.62;62.78;96705.38;5071660;28;20602;-67
2021/10/28 19:12:03;;;;;;;29.40;20.10;;;;;;;12.57;62.85;96698.03;5042055;28;20501;-66
2021/10/28 19:14:29;;;;;;;26.40;17.57;;;;;;;12.53;63.45;96696.75;5060933;28;20186;-67
2021/10/28 19:16:55;;;;;;;27.80;19.13;;;;;;;12.56;63.22;96699.03;5058991;28;21002;-67
2021/10/28 19:19:22;;;;;;;27.97;17.90;;;;;;;12.50;63.15;96691.84;5078717;28;20421;-67
2021/10/28 19:21:47;;;;;;;27.50;18.80;;;;;;;12.47;62.92;96692.22;5072416;28;20208;-64
2021/10/28 19:24:13;;;;;;;25.10;17.60;;;;;;;12.41;63.08;96688.47;5085337;28;20448;-67
2021/10/28 19:26:39;;;;;;;27.50;19.10;;;;;;;12.38;63.11;96688.81;5082676;28;20232;-65
2021/10/28 19:29:07;;;;;;;25.30;17.70;;;;;;;12.37;63.31;96690.63;5080722;28;20284;-66
2021/10/28 19:31:35;;;;;;;24.70;17.50;;;;;;;12.35;63.33;96686.53;5067858;28;20446;-66
2021/10/28 19:34:03;;;;;;;22.87;16.70;;;;;;;12.26;63.62;96688.41;5067814;28;20424;-66
2021/10/28 19:46:58;;;;;;;23.70;15.33;;;;;;;12.25;63.14;96689.38;5068918;28;21095;-67
2021/10/28 19:49:24;;;;;;;24.77;17.13;;;;;;;12.20;63.44;96694.38;5070884;28;20520;-68
2021/10/28 19:51:50;;;;;;;23.40;15.83;;;;;;;12.17;63.44;96695.53;5062797;28;20603;-67
2021/10/28 19:54:16;;;;;;;25.50;15.63;;;;;;;12.13;63.47;96687.19;5071170;28;20429;-67
2021/10/28 19:56:43;;;;;;;30.27;19.77;;;;;;;12.12;63.62;96690.78;5071116;28;20456;-65
2021/10/28 19:59:12;;;;;;;25.23;17.73;;;;;;;12.10;63.63;96691.97;5070999;28;20644;-66
2021/10/28 20:22:30;;;;;;;22.60;16.90;;;;;;;11.92;64.44;96689.59;5036633;28;20476;-66
2021/10/28 20:24:56;;;;;;;24.87;16.60;;;;;;;11.90;64.40;96686.31;5059227;28;20456;-66